createdAt,value
2023-04-15T00:01:19.679Z,0.90
2023-04-15T00:03:48.644Z,1.08
2023-04-15T00:06:17.118Z,0.60
2023-04-15T00:08:45.406Z,0.80
2023-04-15T00:11:15.090Z,1.10
2023-04-15T00:13:43.434Z,1.00
2023-04-15T00:16:12.404Z,1.10
2023-04-15T00:18:41.285Z,1.00
2023-04-15T00:21:09.629Z,1.02
2023-04-15T00:23:37.917Z,1.08
2023-04-15T00:26:06.408Z,0.70
2023-04-15T00:28:36.021Z,0.80
2023-04-15T00:31:04.388Z,1.13
2023-04-15T00:33:32.793Z,0.85
2023-04-15T00:36:01.070Z,0.60
2023-04-15T00:38:29.362Z,0.70
2023-04-15T00:40:58.312Z,1.03
2023-04-15T00:43:27.791Z,1.00
2023-04-15T00:46:00.143Z,0.77
2023-04-15T00:48:29.326Z,0.90
2023-04-15T00:50:57.611Z,0.70
2023-04-15T00:53:26.007Z,0.93
2023-04-15T00:55:55.124Z,0.70
2023-04-15T00:58:23.990Z,1.20
2023-04-15T01:00:54.394Z,0.60
2023-04-15T01:03:24.390Z,0.80
2023-04-15T01:05:58.239Z,0.90
2023-04-15T01:08:28.849Z,0.70
2023-04-15T01:10:59.382Z,0.57
2023-04-15T01:13:28.136Z,0.73
2023-04-15T01:15:58.641Z,0.73
2023-04-15T01:18:28.762Z,0.70
2023-04-15T01:20:57.363Z,0.70
2023-04-15T01:23:26.380Z,0.65
2023-04-15T01:25:57.434Z,0.63
2023-04-15T01:28:25.918Z,0.90
2023-04-15T01:31:08.573Z,0.73
2023-04-15T01:33:36.884Z,0.60
2023-04-15T01:36:07.164Z,0.80
2023-04-15T01:38:35.975Z,0.95
2023-04-15T01:41:07.641Z,0.75
2023-04-15T01:43:37.144Z,0.70
2023-04-15T01:46:06.238Z,0.73
2023-04-15T01:48:34.629Z,0.70
2023-04-15T01:51:03.273Z,0.63
2023-04-15T01:53:31.608Z,0.60
2023-04-15T01:55:59.894Z,0.65
2023-04-15T01:58:29.534Z,0.80
2023-04-15T02:00:58.264Z,0.95
2023-04-15T02:03:27.775Z,0.70
2023-04-15T02:05:56.734Z,0.95
2023-04-15T02:08:25.084Z,1.00
2023-04-15T02:10:53.618Z,0.95
2023-04-15T02:13:21.843Z,0.80
2023-04-15T02:15:52.685Z,1.15
2023-04-15T02:18:21.487Z,1.05
2023-04-15T02:20:49.905Z,0.85
2023-04-15T02:23:18.155Z,1.10
2023-04-15T02:25:53.936Z,1.20
2023-04-15T02:28:22.974Z,0.93
2023-04-15T02:30:54.408Z,0.80
2023-04-15T02:33:23.307Z,1.27
2023-04-15T02:35:53.225Z,0.70
2023-04-15T02:38:21.776Z,0.70
2023-04-15T02:40:51.070Z,1.08
2023-04-15T02:43:19.656Z,1.35
2023-04-15T02:45:49.172Z,0.80
2023-04-15T02:48:20.377Z,0.87
2023-04-15T02:50:48.945Z,0.82
2023-04-15T02:53:17.706Z,1.30
2023-04-15T02:55:46.574Z,0.98
2023-04-15T02:58:15.123Z,0.90
2023-04-15T03:00:43.646Z,0.80
2023-04-15T03:03:12.301Z,0.70
2023-04-15T03:05:42.504Z,0.70
2023-04-15T03:08:11.045Z,0.80
2023-04-15T03:10:39.554Z,0.93
2023-04-15T03:13:08.771Z,0.90
2023-04-15T03:15:37.532Z,0.90
2023-04-15T03:18:06.305Z,1.10
2023-04-15T03:20:35.973Z,1.25
2023-04-15T03:23:06.083Z,0.70
2023-04-15T03:25:35.413Z,0.90
2023-04-15T03:28:04.101Z,0.70
2023-04-15T03:30:32.635Z,0.80
2023-04-15T03:33:01.384Z,0.60
2023-04-15T03:35:30.774Z,0.70
2023-04-15T03:37:59.332Z,1.30
2023-04-15T03:40:29.221Z,0.90
2023-04-15T03:42:57.777Z,0.80
2023-04-15T03:45:26.646Z,0.98
2023-04-15T03:47:55.687Z,0.80
2023-04-15T03:50:24.450Z,1.30
2023-04-15T03:52:52.752Z,0.88
2023-04-15T03:55:21.450Z,1.13
2023-04-15T03:57:51.146Z,1.00
2023-04-15T04:00:19.761Z,0.90
2023-04-15T04:02:48.237Z,1.08
2023-04-15T04:05:16.724Z,1.25
2023-04-15T04:07:45.040Z,0.80
2023-04-15T04:10:13.292Z,1.30
2023-04-15T04:12:41.673Z,1.30
2023-04-15T04:15:12.740Z,1.87
2023-04-15T04:17:41.374Z,1.60
2023-04-15T04:20:10.658Z,1.70
2023-04-15T04:22:40.522Z,1.42
2023-04-15T04:25:11.202Z,1.40
2023-04-15T04:27:39.938Z,1.00
2023-04-15T04:30:10.903Z,1.40
2023-04-15T04:32:39.357Z,1.47
2023-04-15T04:35:08.332Z,1.13
2023-04-15T04:37:36.939Z,1.08
2023-04-15T04:40:06.373Z,1.52
2023-04-15T04:42:34.700Z,1.27
2023-04-15T04:45:02.941Z,1.38
2023-04-15T04:47:32.685Z,1.75
2023-04-15T04:50:00.923Z,1.10
2023-04-15T04:52:29.231Z,1.73
2023-04-15T04:54:57.499Z,1.73
2023-04-15T04:57:25.791Z,2.33
2023-04-15T04:59:54.060Z,1.50
2023-04-15T05:02:22.605Z,1.73
2023-04-15T05:04:54.446Z,1.55
2023-04-15T05:07:22.761Z,1.30
2023-04-15T05:09:51.515Z,1.80
2023-04-15T05:12:19.789Z,1.42
2023-04-15T05:14:48.081Z,2.20
2023-04-15T05:17:16.424Z,1.60
2023-04-15T05:19:44.687Z,1.50
2023-04-15T05:22:14.300Z,1.98
2023-04-15T05:24:42.637Z,1.70
2023-04-15T05:27:11.697Z,2.00
2023-04-15T05:29:39.979Z,1.40
2023-04-15T05:32:08.585Z,1.98
2023-04-15T05:34:37.345Z,1.30
2023-04-15T05:37:05.951Z,1.67
2023-04-15T05:39:35.630Z,1.80
2023-04-15T05:42:03.903Z,2.22
2023-04-15T05:44:32.181Z,1.47
2023-04-15T05:47:00.793Z,1.00
2023-04-15T05:49:29.204Z,1.88
2023-04-15T05:51:57.510Z,1.40
2023-04-15T05:54:27.855Z,2.13
2023-04-15T05:56:58.425Z,1.80
2023-04-15T05:59:27.208Z,1.77
2023-04-15T06:01:55.517Z,1.20
2023-04-15T06:04:24.300Z,2.00
2023-04-15T06:06:52.616Z,1.88
2023-04-15T06:09:20.969Z,1.67
2023-04-15T06:11:51.435Z,1.67
2023-04-15T06:14:21.111Z,2.13
2023-04-15T06:16:49.362Z,2.03
2023-04-15T06:19:18.448Z,1.48
2023-04-15T06:21:47.116Z,1.83
2023-04-15T06:24:15.552Z,1.70
2023-04-15T06:26:43.826Z,1.70
2023-04-15T06:29:12.109Z,1.60
2023-04-15T06:31:41.850Z,1.90
2023-04-15T06:34:11.202Z,1.60
2023-04-15T06:36:39.421Z,1.98
2023-04-15T06:39:07.661Z,1.95
2023-04-15T06:41:35.987Z,2.30
2023-04-15T06:44:04.452Z,2.92
2023-04-15T06:46:32.801Z,0.85
2023-04-15T06:49:03.687Z,1.88
2023-04-15T06:51:32.796Z,3.05
2023-04-15T06:54:01.108Z,3.00
2023-04-15T06:56:29.552Z,2.25
2023-04-15T06:58:57.838Z,3.10
2023-04-15T07:01:26.228Z,2.17
2023-04-15T07:03:54.639Z,2.63
2023-04-15T07:06:24.756Z,2.90
2023-04-15T07:08:53.345Z,3.40
2023-04-15T07:11:22.214Z,3.42
2023-04-15T07:13:50.742Z,2.08
2023-04-15T07:16:19.245Z,2.35
2023-04-15T07:18:48.119Z,2.78
2023-04-15T07:21:16.384Z,3.28
2023-04-15T07:23:46.013Z,2.83
2023-04-15T07:26:14.268Z,2.80
2023-04-15T07:28:42.680Z,2.53
2023-04-15T07:31:11.202Z,2.28
2023-04-15T07:33:39.817Z,2.28
2023-04-15T07:36:08.238Z,2.40
2023-04-15T07:38:36.467Z,2.30
2023-04-15T07:41:06.465Z,1.50
2023-04-15T07:43:34.990Z,2.03
2023-04-15T07:46:03.592Z,2.05
2023-04-15T07:48:31.960Z,2.20
2023-04-15T07:51:00.829Z,1.40
2023-04-15T07:53:29.362Z,1.58
2023-04-15T07:55:57.644Z,2.22
2023-04-15T07:58:27.461Z,1.60
2023-04-15T08:00:55.858Z,1.70
2023-04-15T08:03:24.647Z,1.52
2023-04-15T08:05:52.930Z,2.17
2023-04-15T08:08:21.198Z,1.80
2023-04-15T08:10:51.393Z,2.20
2023-04-15T08:13:21.708Z,2.30
2023-04-15T08:16:19.915Z,2.08
2023-04-15T08:18:48.732Z,2.50
2023-04-15T08:21:17.819Z,2.00
2023-04-15T08:23:47.705Z,1.85
2023-04-15T08:26:16.021Z,2.00
2023-04-15T08:28:45.808Z,1.88
2023-04-15T08:31:15.068Z,1.60
2023-04-15T08:33:44.914Z,1.47
2023-04-15T08:36:13.922Z,1.50
2023-04-15T08:38:42.221Z,1.33
2023-04-15T08:41:21.817Z,1.17
2023-04-15T08:43:55.514Z,1.27
2023-04-15T08:46:24.455Z,1.27
2023-04-15T08:48:57.629Z,0.90
2023-04-15T08:51:26.782Z,1.40
2023-04-15T08:53:55.578Z,0.77
2023-04-15T08:56:27.686Z,1.10
2023-04-15T08:58:56.420Z,1.13
2023-04-15T09:01:24.815Z,0.75
2023-04-15T09:03:55.592Z,0.82
2023-04-15T09:06:24.681Z,1.35
2023-04-15T09:08:53.444Z,1.45
2023-04-15T09:11:23.789Z,1.10
2023-04-15T09:13:52.714Z,0.95
2023-04-15T09:16:20.992Z,1.02
2023-04-15T09:18:49.262Z,0.90
2023-04-15T09:21:19.598Z,1.30
2023-04-15T09:23:58.652Z,1.50
2023-04-15T09:26:34.753Z,1.40
2023-04-15T09:29:07.933Z,1.40
2023-04-15T09:31:36.907Z,1.30
2023-04-15T09:34:05.409Z,1.27
2023-04-15T09:36:53.010Z,1.52
2023-04-15T09:39:21.657Z,1.30
2023-04-15T09:42:05.696Z,1.08
2023-04-15T09:44:33.922Z,1.40
2023-04-15T09:47:02.363Z,1.40
2023-04-15T09:49:30.956Z,1.30
2023-04-15T09:52:06.152Z,1.35
2023-04-15T09:54:36.994Z,1.38
2023-04-15T09:57:10.202Z,1.60
2023-04-15T09:59:38.815Z,1.30
2023-04-15T10:02:08.419Z,1.40
2023-04-15T10:04:40.894Z,1.30
2023-04-15T10:07:12.839Z,1.30
2023-04-15T10:09:41.656Z,1.15
2023-04-15T10:12:11.035Z,1.42
2023-04-15T10:14:41.525Z,1.25
2023-04-15T10:17:12.572Z,1.27
2023-04-15T10:19:41.529Z,1.30
2023-04-15T10:22:11.344Z,1.60
2023-04-15T10:24:41.565Z,1.30
2023-04-15T10:27:11.056Z,1.10
2023-04-15T10:29:39.914Z,1.35
2023-04-15T10:32:09.188Z,1.55
2023-04-15T10:34:38.100Z,1.50
2023-04-15T10:37:06.795Z,1.33
2023-04-15T10:42:14.020Z,1.60
2023-04-15T10:44:44.956Z,1.33
2023-04-15T10:47:15.508Z,1.33
2023-04-15T10:49:49.988Z,0.85
2023-04-15T10:52:24.172Z,1.23
2023-04-15T10:55:03.071Z,1.75
2023-04-15T10:57:36.972Z,1.40
2023-04-15T11:00:14.019Z,1.70
2023-04-15T11:02:45.255Z,1.65
2023-04-15T11:05:14.714Z,1.60
2023-04-15T11:07:51.694Z,1.30
2023-04-15T11:10:57.556Z,1.33
2023-04-15T11:13:33.153Z,1.20
2023-04-15T11:16:03.439Z,1.40
2023-04-15T11:18:34.656Z,1.35
2023-04-15T11:21:06.151Z,1.10
2023-04-15T11:23:44.326Z,1.50
2023-04-15T11:26:12.963Z,1.30
2023-04-15T11:28:44.944Z,1.35
2023-04-15T11:31:15.415Z,1.35
2023-04-15T11:33:48.236Z,1.10
2023-04-15T11:36:16.513Z,1.00
2023-04-15T11:38:47.349Z,1.40
2023-04-15T11:41:16.610Z,1.20
2023-04-15T11:43:46.223Z,1.38
2023-04-15T11:46:15.178Z,1.63
2023-04-15T11:48:46.240Z,1.38
2023-04-15T11:51:15.518Z,1.60
2023-04-15T11:53:46.015Z,1.30
2023-04-15T11:56:20.272Z,1.60
2023-04-15T11:58:53.146Z,1.20
2023-04-15T12:01:21.885Z,1.20
2023-04-15T12:03:51.126Z,1.10
2023-04-15T12:06:20.956Z,1.05
2023-04-15T12:09:14.348Z,1.30
2023-04-15T12:11:53.872Z,1.00
2023-04-15T12:14:28.334Z,1.27
2023-04-15T12:17:00.408Z,1.00
2023-04-15T12:19:31.878Z,0.60
2023-04-15T12:22:01.948Z,1.20
2023-04-15T12:24:33.889Z,1.53
2023-04-15T12:27:06.173Z,1.40
2023-04-15T12:29:38.405Z,1.60
2023-04-15T12:32:09.071Z,1.60
2023-04-15T12:34:39.703Z,1.63
2023-04-15T12:37:10.688Z,1.27
2023-04-15T12:39:41.229Z,1.30
2023-04-15T12:42:10.160Z,0.57
2023-04-15T12:44:40.602Z,0.82
2023-04-15T12:47:11.415Z,1.17
2023-04-15T12:49:40.927Z,1.30
2023-04-15T12:52:09.510Z,1.53
2023-04-15T12:54:37.810Z,1.35
2023-04-15T12:57:07.471Z,1.00
2023-04-15T12:59:36.502Z,1.20
2023-04-15T13:02:06.404Z,1.20
2023-04-15T13:04:34.783Z,0.82
2023-04-15T13:07:03.282Z,0.90
2023-04-15T13:09:31.605Z,1.33
2023-04-15T13:11:59.826Z,1.30
2023-04-15T13:14:28.189Z,1.20
2023-04-15T13:16:56.396Z,1.30
2023-04-15T13:19:25.997Z,1.00
2023-04-15T13:21:54.242Z,1.40
2023-04-15T13:24:22.488Z,1.10
2023-04-15T13:26:51.014Z,1.15
2023-04-15T13:29:19.556Z,1.40
2023-04-15T13:31:47.781Z,1.20
2023-04-15T13:34:16.208Z,1.30
2023-04-15T13:36:46.024Z,1.27
2023-04-15T13:39:14.327Z,1.02
2023-04-15T13:41:42.665Z,1.20
2023-04-15T13:44:12.389Z,1.15
2023-04-15T13:46:41.931Z,1.05
2023-04-15T13:49:10.298Z,0.93
2023-04-15T13:51:38.521Z,0.70
2023-04-15T13:54:08.091Z,0.80
2023-04-15T13:56:36.509Z,0.97
2023-04-15T13:59:06.586Z,1.40
2023-04-15T14:01:35.661Z,1.02
2023-04-15T14:04:04.555Z,0.70
2023-04-15T14:06:33.541Z,1.20
2023-04-15T14:09:01.783Z,1.10
2023-04-15T14:11:31.430Z,1.00
2023-04-15T14:13:59.714Z,0.80
2023-04-15T14:16:28.115Z,1.10
2023-04-15T14:18:56.354Z,0.90
2023-04-15T14:21:24.710Z,1.10
2023-04-15T14:23:53.215Z,1.10
2023-04-15T14:26:21.811Z,0.47
2023-04-15T14:28:52.019Z,1.13
2023-04-15T14:31:21.089Z,0.80
2023-04-15T14:33:49.413Z,0.98
2023-04-15T14:36:17.708Z,1.40
2023-04-15T14:38:47.505Z,1.02
2023-04-15T14:41:17.278Z,1.00
2023-04-15T14:43:45.842Z,1.15
2023-04-15T14:46:15.875Z,0.70
2023-04-15T14:48:44.661Z,0.90
2023-04-15T14:51:13.239Z,0.95
2023-04-15T14:53:41.587Z,0.73
2023-04-15T14:56:09.894Z,0.93
2023-04-15T14:58:38.193Z,0.80
2023-04-15T15:01:06.824Z,0.90
2023-04-15T15:03:36.569Z,0.90
2023-04-15T15:06:05.129Z,1.10
2023-04-15T15:08:33.382Z,1.00
2023-04-15T15:11:01.624Z,1.17
2023-04-15T15:13:29.890Z,1.08
2023-04-15T15:15:58.951Z,1.10
2023-04-15T15:18:27.321Z,0.63
2023-04-15T15:20:57.268Z,1.30
2023-04-15T15:23:25.539Z,0.65
2023-04-15T15:25:53.898Z,0.60
2023-04-15T15:28:22.785Z,0.65
2023-04-15T15:30:51.070Z,1.23
2023-04-15T15:33:19.293Z,1.17
2023-04-15T15:35:47.646Z,1.20
2023-04-15T15:38:17.305Z,0.60
2023-04-15T15:40:45.548Z,0.77
2023-04-15T15:43:13.777Z,1.13
2023-04-15T15:45:42.419Z,0.60
2023-04-15T15:48:11.036Z,0.95
2023-04-15T15:50:39.397Z,0.80
2023-04-15T15:53:07.641Z,0.65
2023-04-15T15:55:37.603Z,1.00
2023-04-15T15:58:05.823Z,1.10
2023-04-15T16:00:34.084Z,0.93
2023-04-15T16:03:07.188Z,0.73
2023-04-15T16:05:36.227Z,1.15
2023-04-15T16:08:04.647Z,0.80
2023-04-15T16:10:33.002Z,1.10
2023-04-15T16:13:02.909Z,1.00
2023-04-15T16:15:31.334Z,0.70
2023-04-15T16:17:59.675Z,0.70
2023-04-15T16:20:28.424Z,0.83
2023-04-15T16:22:58.643Z,0.97
2023-04-15T16:25:27.202Z,0.95
2023-04-15T16:28:05.584Z,1.02
2023-04-15T16:30:41.808Z,1.10
2023-04-15T16:33:10.673Z,0.73
2023-04-15T16:35:38.970Z,0.82
2023-04-15T16:38:07.469Z,0.70
2023-04-15T16:40:35.899Z,1.10
2023-04-15T16:43:04.535Z,0.40
2023-04-15T16:45:32.807Z,1.00
2023-04-15T16:48:02.469Z,0.90
2023-04-15T16:50:31.498Z,0.50
2023-04-15T16:52:59.764Z,0.60
2023-04-15T16:55:28.347Z,0.88
2023-04-15T16:58:02.370Z,0.87
2023-04-15T17:00:32.254Z,0.40
2023-04-15T17:03:02.157Z,0.93
2023-04-15T17:05:31.621Z,1.00
2023-04-15T17:08:00.316Z,0.98
2023-04-15T17:10:28.924Z,0.73
2023-04-15T17:12:57.787Z,1.00
2023-04-15T17:15:26.225Z,1.00
2023-04-15T17:17:54.688Z,1.50
2023-04-15T17:20:24.397Z,0.98
2023-04-15T17:22:52.748Z,1.20
2023-04-15T17:25:21.259Z,0.93
2023-04-15T17:27:49.554Z,1.20
2023-04-15T17:30:17.804Z,1.27
2023-04-15T17:32:46.197Z,1.20
2023-04-15T17:35:14.733Z,1.20
2023-04-15T17:37:44.361Z,1.00
2023-04-15T17:40:14.881Z,0.50
2023-04-15T17:42:43.162Z,1.08
2023-04-15T17:45:12.618Z,0.85
2023-04-15T17:47:40.974Z,0.63
2023-04-15T17:50:10.353Z,0.77
2023-04-15T17:52:38.634Z,1.20
2023-04-15T17:55:09.618Z,0.98
2023-04-15T17:57:38.011Z,0.82
2023-04-15T18:00:08.849Z,1.03
2023-04-15T18:02:37.515Z,1.20
2023-04-15T18:05:07.320Z,0.63
2023-04-15T18:07:36.094Z,1.33
2023-04-15T18:10:04.747Z,0.60
2023-04-15T18:12:34.377Z,0.95
2023-04-15T18:15:02.674Z,1.10
2023-04-15T18:17:31.369Z,1.00
2023-04-15T18:19:59.686Z,0.70
2023-04-15T18:22:28.261Z,1.17
2023-04-15T18:24:58.985Z,1.25
2023-04-15T18:27:28.487Z,1.13
2023-04-15T18:29:58.146Z,1.23
2023-04-15T18:32:31.677Z,1.13
2023-04-15T18:35:00.338Z,0.75
2023-04-15T18:37:29.974Z,0.73
2023-04-15T18:39:58.735Z,1.65
2023-04-15T18:42:27.319Z,0.65
2023-04-15T18:44:56.994Z,1.53
2023-04-15T18:47:27.642Z,0.70
2023-04-15T18:49:55.960Z,1.35
2023-04-15T18:52:24.516Z,1.40
2023-04-15T18:54:52.777Z,0.80
2023-04-15T18:57:23.373Z,1.20
2023-04-15T19:00:00.720Z,1.60
2023-04-15T19:02:29.431Z,1.03
2023-04-15T19:04:58.057Z,1.37
2023-04-15T19:07:26.657Z,1.33
2023-04-15T19:09:55.478Z,1.50
2023-04-15T19:12:24.033Z,1.77
2023-04-15T19:14:52.750Z,1.60
2023-04-15T19:17:22.744Z,1.00
2023-04-15T19:19:51.337Z,1.10
2023-04-15T19:22:20.059Z,1.55
2023-04-15T19:24:48.612Z,1.30
2023-04-15T19:27:17.212Z,1.48
2023-04-15T19:29:45.797Z,1.80
2023-04-15T19:32:14.671Z,2.08
2023-04-15T19:34:44.606Z,1.63
2023-04-15T19:37:13.248Z,2.25
2023-04-15T19:39:41.948Z,2.50
2023-04-15T19:42:10.570Z,2.25
2023-04-15T19:44:42.704Z,1.38
2023-04-15T19:47:11.626Z,2.35
2023-04-15T19:49:40.508Z,1.02
2023-04-15T19:52:10.463Z,1.75
2023-04-15T19:54:39.025Z,1.23
2023-04-15T19:57:07.619Z,1.60
2023-04-15T19:59:36.290Z,1.57
2023-04-15T20:02:04.982Z,1.30
2023-04-15T20:04:34.006Z,1.55
2023-04-15T20:07:02.669Z,1.58
2023-04-15T20:09:32.582Z,1.55
2023-04-15T20:12:46.058Z,1.00
2023-04-15T20:14:49.680Z,1.60
2023-04-15T20:17:18.289Z,1.52
2023-04-15T20:19:46.828Z,1.40
2023-04-15T20:22:15.929Z,2.00
2023-04-15T20:24:45.833Z,1.60
2023-04-15T20:27:14.345Z,1.58
2023-04-15T20:29:43.143Z,1.27
2023-04-15T20:32:11.876Z,1.35
2023-04-15T20:34:41.230Z,1.00
2023-04-15T20:37:09.785Z,1.25
2023-04-15T20:39:38.352Z,1.07
2023-04-15T20:42:10.458Z,2.47
2023-04-15T20:44:39.476Z,1.17
2023-04-15T20:47:08.371Z,1.70
2023-04-15T20:49:37.666Z,2.03
2023-04-15T20:52:07.524Z,0.90
2023-04-15T20:54:36.190Z,2.47
2023-04-15T20:57:04.826Z,1.65
2023-04-15T20:59:34.958Z,2.07
2023-04-15T21:02:03.737Z,1.92
2023-04-15T21:04:32.451Z,2.17
2023-04-15T21:07:01.015Z,0.80
2023-04-15T21:09:29.570Z,1.90
2023-04-15T21:12:01.629Z,2.05
2023-04-15T21:14:31.154Z,1.30
2023-04-15T21:17:03.346Z,1.30
2023-04-15T21:19:31.918Z,2.70
2023-04-15T21:22:00.578Z,3.60
2023-04-15T21:24:29.579Z,2.45
2023-04-15T21:26:58.228Z,1.63
2023-04-15T21:29:26.898Z,1.77
2023-04-15T21:31:55.550Z,2.40
2023-04-15T21:34:25.520Z,2.60
2023-04-15T21:36:54.167Z,2.78
2023-04-15T21:39:22.726Z,2.58
2023-04-15T21:41:51.279Z,2.90
2023-04-15T21:44:19.861Z,1.00
2023-04-15T21:46:48.449Z,1.02
2023-04-15T21:49:17.074Z,2.37
2023-04-15T21:51:47.559Z,1.63
2023-04-15T21:54:16.932Z,1.08
2023-04-15T21:56:46.078Z,1.70
2023-04-15T21:59:14.676Z,0.90
2023-04-15T22:01:43.259Z,1.75
2023-04-15T22:04:11.905Z,1.63
2023-04-15T22:06:40.502Z,2.47
2023-04-15T22:09:13.998Z,1.30
2023-04-15T22:11:42.993Z,2.40
2023-04-15T22:14:11.577Z,2.03
2023-04-15T22:16:40.133Z,1.35
2023-04-15T22:19:09.722Z,1.58
2023-04-15T22:21:38.251Z,2.05
2023-04-15T22:24:35.001Z,2.22
2023-04-15T22:26:59.007Z,1.42
2023-04-15T22:29:27.562Z,1.25
2023-04-15T22:31:56.085Z,1.30
2023-04-15T22:34:24.666Z,1.58
2023-04-15T22:36:53.902Z,3.38
2023-04-15T22:39:22.702Z,2.80
2023-04-15T22:41:51.843Z,1.42
2023-04-15T22:44:22.384Z,1.53
2023-04-15T22:46:53.145Z,1.38
2023-04-15T22:49:22.163Z,1.20
2023-04-15T22:51:51.252Z,1.75
2023-04-15T22:54:20.571Z,1.40
2023-04-15T22:56:49.930Z,1.00
2023-04-15T22:59:21.485Z,0.88
2023-04-15T23:01:50.414Z,1.40
2023-04-15T23:04:25.627Z,2.92
2023-04-15T23:06:56.173Z,0.80
2023-04-15T23:09:30.043Z,3.97
2023-04-15T23:11:59.884Z,1.00
2023-04-15T23:14:30.413Z,1.02
2023-04-15T23:16:59.765Z,2.17
2023-04-15T23:19:29.225Z,1.30
2023-04-15T23:21:57.897Z,1.83
2023-04-15T23:24:27.333Z,2.47
2023-04-15T23:26:57.492Z,3.65
2023-04-15T23:29:26.545Z,2.15
2023-04-15T23:31:59.472Z,1.60
2023-04-15T23:34:28.802Z,2.60
2023-04-15T23:36:57.798Z,1.60
2023-04-15T23:39:27.103Z,2.80
2023-04-15T23:41:57.561Z,1.50
2023-04-15T23:44:26.637Z,1.75
2023-04-15T23:46:57.113Z,1.30
2023-04-15T23:49:27.700Z,2.15
2023-04-15T23:51:57.368Z,2.70
2023-04-15T23:54:26.923Z,3.17
2023-04-15T23:56:56.189Z,1.40
2023-04-15T23:59:25.452Z,2.00
